Time;durP1;ratioP1;P1;durP2;ratioP2;P2;SDS_P1;SDS_P2;PMS_P1;PMS_P2;Temp;Humidity;BMP_temperature;BMP_pressure;BME280_temperature;BME280_humidity;BME280_pressure;Samples;Min_cycle;Max_cycle;Signal;HPM_P1;HPM_P2
2022/09/06 00:01:26;;;;;;;6.53;3.60;;;;;;;;;;4985686;28;20225;-78
2022/09/06 00:04:31;;;;;;;4.03;2.97;;;;;;;;;;4986537;28;20187;-78
2022/09/06 00:07:35;;;;;;;4.17;3.40;;;;;;;;;;4985535;28;20214;-78
2022/09/06 00:10:41;;;;;;;3.87;3.50;;;;;;;;;;4985253;28;20218;-78
2022/09/06 00:13:46;;;;;;;6.67;3.90;;;;;;;;;;4974569;28;20187;-77
2022/09/06 00:16:50;;;;;;;3.97;3.40;;;;;;;;;;4985479;28;20197;-77
2022/09/06 00:19:54;;;;;;;4.27;3.20;;;;;;;;;;4985269;28;20198;-78
2022/09/06 00:23:03;;;;;;;3.40;3.10;;;;;;;;;;4996536;28;20178;-78
2022/09/06 00:26:07;;;;;;;10.40;4.23;;;;;;;;;;4996558;28;20632;-78
2022/09/06 00:29:11;;;;;;;5.57;3.53;;;;;;;;;;4985644;28;20183;-78
2022/09/06 00:32:16;;;;;;;5.00;3.70;;;;;;;;;;4996163;28;20222;-78
2022/09/06 00:35:23;;;;;;;6.30;3.97;;;;;;;;;;4997342;28;20622;-78
2022/09/06 00:38:27;;;;;;;5.10;4.07;;;;;;;;;;4985192;28;20179;-78
2022/09/06 00:41:31;;;;;;;4.97;3.90;;;;;;;;;;4984441;28;20688;-78
2022/09/06 00:44:36;;;;;;;5.20;4.10;;;;;;;;;;5001775;28;20193;-78
2022/09/06 00:47:43;;;;;;;6.50;3.80;;;;;;;;;;5002011;28;20174;-77
2022/09/06 00:50:52;;;;;;;6.50;4.40;;;;;;;;;;4989655;28;20288;-78
2022/09/06 00:53:57;;;;;;;5.53;4.00;;;;;;;;;;4990017;28;20194;-78
2022/09/06 00:57:02;;;;;;;5.77;5.00;;;;;;;;;;4990746;28;20625;-78
2022/09/06 01:00:08;;;;;;;9.10;5.50;;;;;;;;;;4978513;28;20186;-78
2022/09/06 01:03:13;;;;;;;7.37;5.33;;;;;;;;;;4968005;28;20194;-78
2022/09/06 01:06:23;;;;;;;8.73;5.43;;;;;;;;;;4990532;28;20190;-78
2022/09/06 01:09:38;;;;;;;5.83;5.33;;;;;;;;;;4978937;28;20186;-78
2022/09/06 01:13:27;;;;;;;8.10;5.30;;;;;;;;;;4991431;28;20214;-78
2022/09/06 01:16:44;;;;;;;6.67;4.90;;;;;;;;;;4928099;28;20185;-78
2022/09/06 01:20:15;;;;;;;5.63;5.13;;;;;;;;;;5003506;28;20182;-78
2022/09/06 01:23:41;;;;;;;6.13;5.17;;;;;;;;;;4992451;28;20174;-78
2022/09/06 01:26:48;;;;;;;6.20;5.60;;;;;;;;;;4981372;28;20178;-78
2022/09/06 01:30:02;;;;;;;7.07;5.50;;;;;;;;;;4993244;28;20178;-78
2022/09/06 01:33:28;;;;;;;7.50;5.20;;;;;;;;;;4992911;28;20174;-78
2022/09/06 01:36:45;;;;;;;6.63;5.47;;;;;;;;;;4993467;28;20186;-79
2022/09/06 01:39:49;;;;;;;5.93;5.43;;;;;;;;;;4983493;28;20178;-78
2022/09/06 01:42:56;;;;;;;6.83;6.23;;;;;;;;;;5006456;28;20210;-79
2022/09/06 01:46:11;;;;;;;8.83;6.60;;;;;;;;;;4995834;28;20193;-79
2022/09/06 01:49:34;;;;;;;9.27;5.90;;;;;;;;;;4996664;28;20662;-78
2022/09/06 01:53:05;;;;;;;9.07;6.83;;;;;;;;;;5002950;28;20210;-79
2022/09/06 01:56:45;;;;;;;7.27;6.57;;;;;;;;;;4988315;28;20178;-78
2022/09/06 02:00:03;;;;;;;10.83;6.00;;;;;;;;;;5007347;28;20202;-78
2022/09/06 02:03:55;;;;;;;7.03;6.33;;;;;;;;;;5007619;28;20174;-79
2022/09/06 02:07:04;;;;;;;7.90;5.93;;;;;;;;;;4992470;28;20225;-79
2022/09/06 02:10:24;;;;;;;7.77;6.20;;;;;;;;;;4997474;28;20178;-79
2022/09/06 02:13:34;;;;;;;7.47;6.40;;;;;;;;;;4999656;28;20182;-78
2022/09/06 02:16:41;;;;;;;8.27;7.07;;;;;;;;;;5010680;28;20186;-78
2022/09/06 02:19:51;;;;;;;8.50;7.20;;;;;;;;;;4988305;28;20182;-78
2022/09/06 02:23:00;;;;;;;7.60;6.90;;;;;;;;;;5000718;28;20210;-78
2022/09/06 02:26:07;;;;;;;7.43;6.57;;;;;;;;;;4991302;28;20182;-79
2022/09/06 02:29:12;;;;;;;8.27;7.30;;;;;;;;;;4990633;28;20178;-79
2022/09/06 02:32:20;;;;;;;8.67;7.77;;;;;;;;;;4989732;28;20218;-79
2022/09/06 02:35:24;;;;;;;9.97;8.60;;;;;;;;;;4989951;28;20182;-79
2022/09/06 02:38:30;;;;;;;9.70;8.60;;;;;;;;;;5000825;28;20178;-79
2022/09/06 02:41:34;;;;;;;8.67;7.77;;;;;;;;;;4988956;28;20566;-78
2022/09/06 02:44:39;;;;;;;11.63;8.27;;;;;;;;;;5012690;28;20178;-79
2022/09/06 02:47:43;;;;;;;11.73;8.10;;;;;;;;;;5000542;28;20182;-78
2022/09/06 02:50:47;;;;;;;12.77;9.37;;;;;;;;;;4998500;28;20221;-78
2022/09/06 02:53:52;;;;;;;9.73;8.73;;;;;;;;;;4987084;28;20622;-79
2022/09/06 02:56:56;;;;;;;9.80;8.73;;;;;;;;;;4986112;28;20174;-78
2022/09/06 03:00:01;;;;;;;10.07;9.00;;;;;;;;;;5009352;28;20182;-78
2022/09/06 03:03:06;;;;;;;11.60;8.03;;;;;;;;;;5009517;28;20543;-79
2022/09/06 03:06:10;;;;;;;10.43;8.63;;;;;;;;;;4986179;28;20182;-78
2022/09/06 03:09:14;;;;;;;11.10;9.93;;;;;;;;;;5007642;28;20190;-78
2022/09/06 03:12:19;;;;;;;10.87;9.77;;;;;;;;;;4996649;28;20213;-78
2022/09/06 03:15:23;;;;;;;10.33;8.63;;;;;;;;;;4996593;28;20182;-78
2022/09/06 03:18:29;;;;;;;10.20;9.17;;;;;;;;;;4985386;28;20182;-78
2022/09/06 03:21:33;;;;;;;9.70;8.67;;;;;;;;;;4984642;28;20222;-78
2022/09/06 03:24:37;;;;;;;10.47;9.37;;;;;;;;;;4972924;28;20178;-78
2022/09/06 03:27:42;;;;;;;11.33;9.37;;;;;;;;;;4983961;28;20182;-78
2022/09/06 03:30:48;;;;;;;17.50;9.73;;;;;;;;;;5007275;28;20214;-78
2022/09/06 03:33:52;;;;;;;13.60;9.87;;;;;;;;;;4972793;28;20183;-78
2022/09/06 03:36:57;;;;;;;15.47;11.17;;;;;;;;;;4982632;28;20665;-78
2022/09/06 03:40:05;;;;;;;13.03;9.93;;;;;;;;;;5005688;28;20185;-79
2022/09/06 03:43:09;;;;;;;12.30;10.47;;;;;;;;;;4993555;28;20222;-78
2022/09/06 03:46:13;;;;;;;12.63;10.03;;;;;;;;;;4982892;28;20193;-78
2022/09/06 03:49:17;;;;;;;14.83;10.70;;;;;;;;;;4993762;28;20193;-78
2022/09/06 03:52:22;;;;;;;13.17;10.07;;;;;;;;;;4982164;28;20233;-78
2022/09/06 03:55:26;;;;;;;13.43;10.50;;;;;;;;;;4982500;28;20189;-78
2022/09/06 03:58:31;;;;;;;12.67;10.60;;;;;;;;;;4982671;28;20204;-78
2022/09/06 04:01:35;;;;;;;11.20;10.03;;;;;;;;;;4993797;28;20225;-78
2022/09/06 04:04:39;;;;;;;13.27;11.10;;;;;;;;;;4982146;28;20193;-78
2022/09/06 04:07:44;;;;;;;12.73;10.90;;;;;;;;;;4993989;28;20208;-78
2022/09/06 04:10:50;;;;;;;13.43;10.30;;;;;;;;;;4987645;28;20222;-79
2022/09/06 04:13:54;;;;;;;11.30;10.13;;;;;;;;;;4987897;28;20197;-79
2022/09/06 04:16:58;;;;;;;15.03;10.83;;;;;;;;;;4987730;28;20640;-78
2022/09/06 04:20:03;;;;;;;14.30;11.27;;;;;;;;;;4987668;28;20197;-78
2022/09/06 04:23:08;;;;;;;14.07;10.93;;;;;;;;;;4998151;28;20220;-79
2022/09/06 04:26:12;;;;;;;12.83;10.77;;;;;;;;;;4986756;28;20250;-79
2022/09/06 04:29:16;;;;;;;11.67;10.47;;;;;;;;;;4987386;28;20197;-78
2022/09/06 04:32:20;;;;;;;13.40;11.80;;;;;;;;;;4986259;28;20729;-78
2022/09/06 04:35:24;;;;;;;13.17;11.87;;;;;;;;;;4985171;28;20209;-78
2022/09/06 04:38:33;;;;;;;27.03;13.93;;;;;;;;;;4998876;28;20193;-78
2022/09/06 04:41:37;;;;;;;17.37;11.47;;;;;;;;;;4998134;28;20232;-80
2022/09/06 04:44:41;;;;;;;15.57;10.83;;;;;;;;;;4997928;28;20193;-80
2022/09/06 04:47:45;;;;;;;15.17;11.67;;;;;;;;;;5009416;28;20185;-80
2022/09/06 04:50:50;;;;;;;27.10;11.70;;;;;;;;;;4987142;28;20229;-80
2022/09/06 04:53:54;;;;;;;18.90;11.83;;;;;;;;;;4997522;28;20250;-79
2022/09/06 04:56:58;;;;;;;24.03;11.67;;;;;;;;;;4975281;28;20565;-80
2022/09/06 05:00:03;;;;;;;29.33;12.30;;;;;;;;;;4986833;28;20561;-80
2022/09/06 05:03:08;;;;;;;26.33;11.13;;;;;;;;;;4987831;28;20402;-80
2022/09/06 05:06:21;;;;;;;18.70;11.00;;;;;;;;;;4986746;28;20541;-80
2022/09/06 05:09:25;;;;;;;21.40;11.87;;;;;;;;;;4986708;28;20213;-79
2022/09/06 05:12:29;;;;;;;24.23;12.73;;;;;;;;;;4986799;28;20213;-79
2022/09/06 05:15:33;;;;;;;19.77;13.53;;;;;;;;;;4974603;28;20185;-79
2022/09/06 05:18:38;;;;;;;24.77;11.97;;;;;;;;;;4997874;28;20233;-79
2022/09/06 05:21:42;;;;;;;29.77;15.13;;;;;;;;;;4978893;28;20233;-79
2022/09/06 05:24:46;;;;;;;22.40;14.53;;;;;;;;;;4986854;28;20205;-79
2022/09/06 05:27:51;;;;;;;18.33;13.90;;;;;;;;;;4986518;28;20200;-79
2022/09/06 05:31:09;;;;;;;17.93;12.93;;;;;;;;;;4984079;28;20220;-79
2022/09/06 05:34:14;;;;;;;21.13;14.03;;;;;;;;;;4961920;28;20258;-79
2022/09/06 05:37:18;;;;;;;28.40;15.27;;;;;;;;;;4995839;28;20189;-79
2022/09/06 05:40:22;;;;;;;24.90;14.53;;;;;;;;;;4973146;28;20185;-79
2022/09/06 05:43:26;;;;;;;25.57;13.93;;;;;;;;;;4984415;28;20236;-78
2022/09/06 05:46:30;;;;;;;21.17;14.87;;;;;;;;;;4987301;28;20193;-79
2022/09/06 05:49:35;;;;;;;24.07;17.70;;;;;;;;;;5003811;28;20185;-79
2022/09/06 05:52:39;;;;;;;24.60;17.47;;;;;;;;;;4992450;28;20224;-78
2022/09/06 05:55:44;;;;;;;24.37;16.83;;;;;;;;;;5003314;28;20184;-79
2022/09/06 05:58:48;;;;;;;20.50;18.33;;;;;;;;;;4991824;28;20536;-77
2022/09/06 06:01:53;;;;;;;17.07;14.90;;;;;;;;;;4991966;28;20581;-78
2022/09/06 06:04:57;;;;;;;15.33;13.73;;;;;;;;;;4992290;28;20193;-78
2022/09/06 06:08:01;;;;;;;17.10;13.90;;;;;;;;;;5003921;28;20220;-78
2022/09/06 06:11:05;;;;;;;18.10;15.00;;;;;;;;;;4991925;28;20228;-78
2022/09/06 06:14:10;;;;;;;14.63;13.03;;;;;;;;;;4980995;28;20185;-79
2022/09/06 06:17:15;;;;;;;30.93;13.47;;;;;;;;;;4992039;28;20193;-78
2022/09/06 06:20:19;;;;;;;16.30;14.07;;;;;;;;;;5002924;28;20185;-79
2022/09/06 06:23:23;;;;;;;14.50;12.97;;;;;;;;;;4992080;28;20221;-79
2022/09/06 06:26:31;;;;;;;16.77;13.90;;;;;;;;;;4980775;28;20185;-79
2022/09/06 06:29:36;;;;;;;15.90;13.07;;;;;;;;;;4992163;28;20692;-79
2022/09/06 06:32:40;;;;;;;16.10;14.40;;;;;;;;;;4980889;28;20220;-79
2022/09/06 06:36:02;;;;;;;22.87;16.90;;;;;;;;;;4980765;28;20193;-79
2022/09/06 06:39:07;;;;;;;31.00;16.50;;;;;;;;;;4980865;28;20194;-79
2022/09/06 06:42:11;;;;;;;20.90;13.83;;;;;;;;;;5003496;28;20224;-78
2022/09/06 06:45:26;;;;;;;17.77;14.60;;;;;;;;;;4991282;28;20185;-79
2022/09/06 06:48:30;;;;;;;15.03;12.83;;;;;;;;;;4991804;28;20190;-78
2022/09/06 06:51:38;;;;;;;15.93;12.30;;;;;;;;;;4980784;28;20221;-79
2022/09/06 06:54:42;;;;;;;14.60;12.50;;;;;;;;;;4991497;28;20584;-79
2022/09/06 06:57:46;;;;;;;22.83;11.73;;;;;;;;;;4991225;28;20193;-79
2022/09/06 07:00:50;;;;;;;26.87;11.70;;;;;;;;;;4977570;28;20220;-79
2022/09/06 07:03:54;;;;;;;16.17;8.83;;;;;;;;;;4988752;28;20213;-78
2022/09/06 07:06:59;;;;;;;11.57;7.90;;;;;;;;;;4988944;28;20210;-79
2022/09/06 07:10:03;;;;;;;19.77;7.10;;;;;;;;;;5000701;28;20183;-79
2022/09/06 07:13:07;;;;;;;9.53;6.97;;;;;;;;;;5000195;28;20672;-79
2022/09/06 07:16:16;;;;;;;8.20;6.10;;;;;;;;;;5001032;28;20193;-79
2022/09/06 07:19:20;;;;;;;12.33;7.67;;;;;;;;;;4987999;28;20198;-79
2022/09/06 07:22:25;;;;;;;11.70;6.73;;;;;;;;;;4977182;28;20217;-79
2022/09/06 07:25:29;;;;;;;25.07;6.53;;;;;;;;;;4988162;28;20186;-79
2022/09/06 07:28:33;;;;;;;13.47;6.70;;;;;;;;;;4988317;28;20197;-79
2022/09/06 07:31:38;;;;;;;12.30;6.70;;;;;;;;;;4977443;28;20214;-78
2022/09/06 07:34:43;;;;;;;11.13;5.43;;;;;;;;;;4977130;28;20198;-79
2022/09/06 07:37:57;;;;;;;25.30;7.53;;;;;;;;;;5000592;28;20178;-79
2022/09/06 07:41:06;;;;;;;9.20;5.87;;;;;;;;;;4999718;28;20725;-79
2022/09/06 07:44:10;;;;;;;7.80;5.37;;;;;;;;;;4977421;28;20210;-79
2022/09/06 07:47:16;;;;;;;7.60;5.73;;;;;;;;;;4987440;28;20178;-78
2022/09/06 07:50:20;;;;;;;19.37;6.53;;;;;;;;;;4977703;28;20526;-79
2022/09/06 07:53:25;;;;;;;17.90;6.47;;;;;;;;;;5001568;28;20511;-79
2022/09/06 07:56:29;;;;;;;8.77;4.87;;;;;;;;;;4989226;28;20190;-79
2022/09/06 07:59:33;;;;;;;8.23;4.60;;;;;;;;;;4989038;28;20182;-78
2022/09/06 08:02:39;;;;;;;10.37;4.90;;;;;;;;;;4977761;28;20218;-79
2022/09/06 08:05:47;;;;;;;6.37;4.30;;;;;;;;;;4980429;28;20182;-79
2022/09/06 08:08:53;;;;;;;6.47;4.03;;;;;;;;;;4992978;28;20171;-79
2022/09/06 08:11:57;;;;;;;6.70;3.90;;;;;;;;;;4991873;28;20214;-78
2022/09/06 08:15:01;;;;;;;10.20;4.30;;;;;;;;;;4982520;28;20182;-78
2022/09/06 08:18:05;;;;;;;6.83;3.90;;;;;;;;;;5004200;28;20183;-78
2022/09/06 08:21:12;;;;;;;4.77;4.33;;;;;;;;;;4992441;28;20555;-79
2022/09/06 08:24:16;;;;;;;10.13;4.10;;;;;;;;;;4992305;28;20211;-78
2022/09/06 08:27:21;;;;;;;9.73;4.00;;;;;;;;;;4992786;28;20194;-79
2022/09/06 08:30:26;;;;;;;14.13;4.60;;;;;;;;;;5003760;28;20198;-78
2022/09/06 08:33:30;;;;;;;6.63;4.20;;;;;;;;;;4981345;28;20198;-78
2022/09/06 08:36:34;;;;;;;25.40;4.80;;;;;;;;;;4979817;28;20665;-79
2022/09/06 08:39:38;;;;;;;8.73;3.80;;;;;;;;;;5002325;28;20203;-79
2022/09/06 08:42:43;;;;;;;28.80;5.33;;;;;;;;;;5002811;28;20210;-79
2022/09/06 08:45:54;;;;;;;5.13;3.97;;;;;;;;;;5002438;28;20176;-79
2022/09/06 08:48:59;;;;;;;6.27;3.60;;;;;;;;;;5001487;28;20202;-79
2022/09/06 08:52:19;;;;;;;5.13;3.73;;;;;;;;;;4989230;28;20214;-79
2022/09/06 08:55:34;;;;;;;4.50;3.10;;;;;;;;;;4988804;28;20190;-79
2022/09/06 08:59:25;;;;;;;3.80;3.20;;;;;;;;;;4976274;28;20190;-79
2022/09/06 09:02:46;;;;;;;4.88;3.20;;;;;;;;;;4913332;28;20230;-79
2022/09/06 09:05:55;;;;;;;2.83;2.60;;;;;;;;;;4987208;28;20178;-79
2022/09/06 09:09:06;;;;;;;2.95;2.40;;;;;;;;;;4986530;28;20208;-79
2022/09/06 09:12:16;;;;;;;9.65;2.58;;;;;;;;;;4987606;28;20218;-79
2022/09/06 09:15:21;;;;;;;3.45;2.30;;;;;;;;;;4976161;28;20179;-79
2022/09/06 09:18:32;;;;;;;5.20;2.10;;;;;;;;;;4999137;28;20629;-79
2022/09/06 09:21:38;;;;;;;6.53;2.42;;;;;;;;;;4986852;28;20706;-79
2022/09/06 09:24:44;;;;;;;6.00;2.28;;;;;;;;;;4988017;28;20218;-79
2022/09/06 09:27:56;;;;;;;33.95;3.90;;;;;;;;;;4976023;28;20178;-79
2022/09/06 09:31:00;;;;;;;2.78;2.05;;;;;;;;;;4987762;28;20222;-79
2022/09/06 09:34:10;;;;;;;9.38;2.60;;;;;;;;;;4999294;28;20179;-79
2022/09/06 09:37:25;;;;;;;3.60;2.00;;;;;;;;;;4986892;28;20181;-79
2022/09/06 09:40:40;;;;;;;4.13;1.83;;;;;;;;;;4987518;28;20186;-79
2022/09/06 09:43:56;;;;;;;3.20;1.52;;;;;;;;;;4986762;28;20213;-79
2022/09/06 09:47:20;;;;;;;2.35;1.77;;;;;;;;;;4987183;28;20183;-79
2022/09/06 09:50:29;;;;;;;4.03;1.77;;;;;;;;;;4986594;28;20190;-79
2022/09/06 09:53:48;;;;;;;3.67;1.98;;;;;;;;;;4998485;28;20185;-79
2022/09/06 09:56:56;;;;;;;13.23;2.78;;;;;;;;;;4976284;28;20186;-79
2022/09/06 10:00:01;;;;;;;8.23;2.33;;;;;;;;;;4986455;28;20201;-79
2022/09/06 10:03:17;;;;;;;2.88;1.88;;;;;;;;;;4987531;28;20182;-79
2022/09/06 10:06:26;;;;;;;2.10;1.80;;;;;;;;;;4975534;28;20186;-80
2022/09/06 10:09:35;;;;;;;36.08;3.90;;;;;;;;;;4998526;28;20183;-79
2022/09/06 10:12:41;;;;;;;3.63;1.90;;;;;;;;;;4997779;28;20684;-79
2022/09/06 10:15:47;;;;;;;3.40;1.90;;;;;;;;;;4998515;28;20202;-79
2022/09/06 10:18:51;;;;;;;1.92;1.45;;;;;;;;;;4986754;28;20179;-79
2022/09/06 10:22:02;;;;;;;3.05;1.80;;;;;;;;;;4975869;28;20222;-79
2022/09/06 10:25:32;;;;;;;5.95;1.58;;;;;;;;;;4975408;28;20214;-79
2022/09/06 10:28:40;;;;;;;15.05;2.22;;;;;;;;;;4985821;28;20178;-80
2022/09/06 10:32:10;;;;;;;66.20;6.63;;;;;;;;;;4985948;28;20215;-79
2022/09/06 10:35:27;;;;;;;6.55;1.88;;;;;;;;;;5002207;28;20175;-79
2022/09/06 10:38:44;;;;;;;3.33;1.67;;;;;;;;;;4990132;28;20179;-80
2022/09/06 10:42:04;;;;;;;3.58;1.40;;;;;;;;;;4979183;28;20218;-80
2022/09/06 10:45:29;;;;;;;3.28;1.40;;;;;;;;;;4979547;28;20689;-79
2022/09/06 10:48:43;;;;;;;3.00;1.40;;;;;;;;;;5001242;28;20187;-79
2022/09/06 10:51:53;;;;;;;6.07;1.77;;;;;;;;;;4989381;28;20214;-80
2022/09/06 10:55:04;;;;;;;3.50;1.40;;;;;;;;;;4989589;28;20175;-79
2022/09/06 10:58:10;;;;;;;3.28;1.35;;;;;;;;;;4989885;28;20171;-79
2022/09/06 11:01:26;;;;;;;5.53;1.48;;;;;;;;;;4978668;28;20206;-79
2022/09/06 11:04:35;;;;;;;3.10;1.35;;;;;;;;;;4989331;28;20210;-79
2022/09/06 11:07:45;;;;;;;3.25;1.10;;;;;;;;;;5001409;28;20210;-79
2022/09/06 11:10:52;;;;;;;2.90;1.00;;;;;;;;;;5000558;28;20547;-79
2022/09/06 11:13:56;;;;;;;18.17;2.30;;;;;;;;;;4967226;28;20203;-79
2022/09/06 11:17:12;;;;;;;4.03;1.30;;;;;;;;;;4977966;28;20182;-79
2022/09/06 11:20:31;;;;;;;18.98;2.42;;;;;;;;;;5000045;28;20178;-79
2022/09/06 11:23:38;;;;;;;3.65;1.10;;;;;;;;;;5000531;28;20198;-80
2022/09/06 11:26:43;;;;;;;4.20;1.20;;;;;;;;;;5001290;28;20187;-80
2022/09/06 11:29:55;;;;;;;3.70;1.25;;;;;;;;;;4978339;28;20199;-79
2022/09/06 11:33:07;;;;;;;16.25;2.45;;;;;;;;;;4989065;28;20217;-79
2022/09/06 11:36:33;;;;;;;3.75;1.10;;;;;;;;;;4989245;28;20179;-80
2022/09/06 11:39:40;;;;;;;2.55;1.25;;;;;;;;;;4988241;28;20183;-79
2022/09/06 11:42:44;;;;;;;4.20;1.40;;;;;;;;;;5000940;28;20206;-80
2022/09/06 11:45:51;;;;;;;19.15;2.33;;;;;;;;;;4999571;28;20210;-80
2022/09/06 11:49:09;;;;;;;11.02;1.77;;;;;;;;;;4988458;28;20190;-79
2022/09/06 11:52:49;;;;;;;5.65;1.80;;;;;;;;;;4999466;28;20689;-79
2022/09/06 11:55:59;;;;;;;4.70;1.80;;;;;;;;;;4988971;28;20171;-80
2022/09/06 11:59:17;;;;;;;2.90;1.20;;;;;;;;;;5000631;28;20183;-79
2022/09/06 12:02:30;;;;;;;51.25;4.07;;;;;;;;;;4999088;28;20226;-79
2022/09/06 12:06:13;;;;;;;5.25;1.40;;;;;;;;;;4977113;28;20203;-80
2022/09/06 12:09:33;;;;;;;8.18;1.70;;;;;;;;;;5000107;28;20186;-79
2022/09/06 12:12:40;;;;;;;6.25;1.60;;;;;;;;;;4999901;28;20218;-79
2022/09/06 12:15:51;;;;;;;10.75;2.10;;;;;;;;;;4999709;28;20166;-79
2022/09/06 12:18:57;;;;;;;6.78;1.52;;;;;;;;;;4987892;28;20183;-79
2022/09/06 12:22:01;;;;;;;9.65;1.73;;;;;;;;;;4977293;28;20214;-80
2022/09/06 12:25:14;;;;;;;5.68;1.90;;;;;;;;;;5000388;28;20207;-80
2022/09/06 12:28:25;;;;;;;17.13;2.30;;;;;;;;;;4988370;28;20175;-79
2022/09/06 12:31:36;;;;;;;6.30;1.75;;;;;;;;;;5000455;28;20576;-80
2022/09/06 12:34:43;;;;;;;13.43;2.53;;;;;;;;;;4976924;28;20187;-79
2022/09/06 12:38:00;;;;;;;9.05;2.03;;;;;;;;;;4988748;28;20646;-80
2022/09/06 12:41:06;;;;;;;7.10;2.05;;;;;;;;;;4988147;28;20219;-79
2022/09/06 12:44:13;;;;;;;11.35;2.00;;;;;;;;;;4965450;28;20198;-79
2022/09/06 12:47:31;;;;;;;4.57;1.98;;;;;;;;;;4999580;28;20630;-79
2022/09/06 12:50:36;;;;;;;28.05;3.58;;;;;;;;;;4987522;28;20658;-79
2022/09/06 12:53:56;;;;;;;16.88;2.50;;;;;;;;;;4976005;28;20183;-79
2022/09/06 12:57:12;;;;;;;9.35;1.92;;;;;;;;;;4975503;28;20202;-79
2022/09/06 13:00:18;;;;;;;12.25;2.28;;;;;;;;;;4987874;28;20191;-79
2022/09/06 13:03:31;;;;;;;8.98;2.20;;;;;;;;;;4999162;28;20202;-79
2022/09/06 13:06:44;;;;;;;5.65;2.20;;;;;;;;;;4998764;28;20202;-79
2022/09/06 13:09:53;;;;;;;12.35;2.65;;;;;;;;;;4987183;28;20194;-79
2022/09/06 13:12:58;;;;;;;7.20;2.40;;;;;;;;;;4987539;28;20174;-79
2022/09/06 13:16:02;;;;;;;12.73;2.30;;;;;;;;;;4987305;28;20186;-79
2022/09/06 13:19:31;;;;;;;10.80;2.67;;;;;;;;;;4986729;28;20518;-79
2022/09/06 13:22:49;;;;;;;9.40;2.42;;;;;;;;;;4998799;28;20218;-79
2022/09/06 13:25:54;;;;;;;15.73;3.35;;;;;;;;;;4986699;28;20210;-81
2022/09/06 13:29:30;;;;;;;10.63;2.30;;;;;;;;;;4986715;28;20174;-81
2022/09/06 13:32:43;;;;;;;16.73;2.92;;;;;;;;;;4986228;28;20222;-80
2022/09/06 13:36:02;;;;;;;5.75;2.05;;;;;;;;;;4964890;28;20174;-80
2022/09/06 13:39:07;;;;;;;41.28;5.07;;;;;;;;;;4986572;28;20187;-80
2022/09/06 13:42:32;;;;;;;8.57;2.60;;;;;;;;;;4986558;28;20222;-80
2022/09/06 13:45:37;;;;;;;44.05;5.60;;;;;;;;;;4975865;28;20210;-81
2022/09/06 13:48:42;;;;;;;12.93;2.40;;;;;;;;;;4987259;28;20653;-81
2022/09/06 13:51:47;;;;;;;9.07;2.38;;;;;;;;;;4998341;28;20218;-80
2022/09/06 13:54:51;;;;;;;8.18;2.40;;;;;;;;;;4986194;28;20183;-80
2022/09/06 13:57:55;;;;;;;8.85;2.60;;;;;;;;;;4975663;28;20651;-80
2022/09/06 14:01:00;;;;;;;8.63;2.47;;;;;;;;;;4986515;28;20689;-80
2022/09/06 14:04:06;;;;;;;14.57;2.83;;;;;;;;;;4975266;28;20182;-80
2022/09/06 14:07:10;;;;;;;10.07;2.58;;;;;;;;;;4976079;28;20198;-80
2022/09/06 14:10:14;;;;;;;8.88;2.20;;;;;;;;;;5001702;28;20186;-80
2022/09/06 14:13:19;;;;;;;8.05;2.20;;;;;;;;;;4977931;28;20546;-79
2022/09/06 14:16:23;;;;;;;43.60;4.75;;;;;;;;;;5002302;28;20183;-80
2022/09/06 14:19:28;;;;;;;7.47;2.10;;;;;;;;;;4977955;28;20179;-80
2022/09/06 14:22:32;;;;;;;7.93;2.60;;;;;;;;;;4988973;28;20222;-80
2022/09/06 14:25:36;;;;;;;8.20;2.30;;;;;;;;;;5001530;28;20661;-79
2022/09/06 14:28:40;;;;;;;12.68;2.35;;;;;;;;;;4978410;28;20183;-80
2022/09/06 14:31:47;;;;;;;8.35;2.20;;;;;;;;;;4989530;28;20222;-80
2022/09/06 14:34:51;;;;;;;12.57;3.15;;;;;;;;;;5001570;28;20179;-81
2022/09/06 14:37:55;;;;;;;5.70;2.30;;;;;;;;;;4978325;28;20194;-81
2022/09/06 14:41:04;;;;;;;12.23;2.08;;;;;;;;;;4977989;28;20214;-81
2022/09/06 14:44:09;;;;;;;7.90;2.38;;;;;;;;;;4977840;28;20182;-80
2022/09/06 14:47:13;;;;;;;10.48;2.33;;;;;;;;;;5001323;28;20178;-81
2022/09/06 14:50:17;;;;;;;10.75;2.17;;;;;;;;;;5000191;28;20179;-79
2022/09/06 14:53:21;;;;;;;5.97;2.10;;;;;;;;;;4998326;28;20179;-77
2022/09/06 14:56:25;;;;;;;9.73;2.70;;;;;;;;;;4997498;28;20178;-80
2022/09/06 14:59:30;;;;;;;7.72;2.30;;;;;;;;;;4988893;28;20634;-79
2022/09/06 15:02:34;;;;;;;10.10;2.10;;;;;;;;;;4999881;28;20214;-79
2022/09/06 15:05:39;;;;;;;7.20;2.15;;;;;;;;;;4988435;28;20681;-79
2022/09/06 15:08:42;;;;;;;9.38;2.20;;;;;;;;;;4993667;28;20549;-80
2022/09/06 15:11:50;;;;;;;6.97;2.15;;;;;;;;;;5005127;28;20226;-80
2022/09/06 15:14:55;;;;;;;6.72;2.35;;;;;;;;;;4987023;28;20179;-80
2022/09/06 15:17:59;;;;;;;17.35;2.55;;;;;;;;;;4978296;28;20191;-80
2022/09/06 15:21:09;;;;;;;8.15;1.92;;;;;;;;;;4989292;28;20214;-81
2022/09/06 15:24:14;;;;;;;19.33;2.70;;;;;;;;;;4989169;28;20191;-80
2022/09/06 15:27:18;;;;;;;6.32;2.03;;;;;;;;;;4976158;28;20182;-83
2022/09/06 15:30:22;;;;;;;5.03;2.13;;;;;;;;;;4976857;28;20179;-81
2022/09/06 15:33:31;;;;;;;7.43;2.33;;;;;;;;;;4976391;28;20183;-81
2022/09/06 15:36:35;;;;;;;4.75;2.20;;;;;;;;;;4985140;28;20175;-81
2022/09/06 15:39:40;;;;;;;8.15;2.03;;;;;;;;;;4976833;28;20201;-80
2022/09/06 15:42:44;;;;;;;5.93;2.13;;;;;;;;;;4987809;28;20220;-79
2022/09/06 15:45:49;;;;;;;19.70;3.13;;;;;;;;;;4985185;28;20226;-79
2022/09/06 15:48:53;;;;;;;12.95;2.67;;;;;;;;;;4983012;28;20187;-79
2022/09/06 15:51:59;;;;;;;9.52;2.70;;;;;;;;;;4983431;28;20212;-79
2022/09/06 15:58:27;;;;;;;12.85;2.70;;;;;;;;;;4982160;28;20179;-79
2022/09/06 16:01:32;;;;;;;11.43;2.50;;;;;;;;;;4971021;28;20216;-79
2022/09/06 16:04:37;;;;;;;9.82;2.45;;;;;;;;;;4970938;28;20178;-80
2022/09/06 16:07:43;;;;;;;21.90;3.03;;;;;;;;;;4969412;28;20203;-80
2022/09/06 16:10:47;;;;;;;17.83;3.70;;;;;;;;;;4969219;28;20223;-80
2022/09/06 16:13:51;;;;;;;8.88;2.67;;;;;;;;;;4975180;28;20176;-80
2022/09/06 16:16:56;;;;;;;9.00;2.67;;;;;;;;;;4986360;28;20179;-81
2022/09/06 16:20:01;;;;;;;17.45;3.15;;;;;;;;;;4986370;28;20185;-81
2022/09/06 16:23:05;;;;;;;11.40;2.63;;;;;;;;;;4971681;28;20182;-81
2022/09/06 16:26:09;;;;;;;7.82;2.60;;;;;;;;;;4982987;28;20206;-82
2022/09/06 16:29:16;;;;;;;5.43;2.33;;;;;;;;;;4982202;28;20205;-82
2022/09/06 16:32:21;;;;;;;9.02;2.45;;;;;;;;;;4969546;28;20220;-80
2022/09/06 16:35:25;;;;;;;7.00;2.33;;;;;;;;;;4970112;28;20184;-80
2022/09/06 16:38:31;;;;;;;6.22;2.40;;;;;;;;;;4980620;28;20185;-80
2022/09/06 16:41:39;;;;;;;5.72;2.50;;;;;;;;;;4980647;28;20217;-80
2022/09/06 16:44:43;;;;;;;5.28;2.10;;;;;;;;;;4980433;28;20181;-80
2022/09/06 16:47:48;;;;;;;18.05;3.17;;;;;;;;;;4983595;28;20183;-81
2022/09/06 16:50:52;;;;;;;14.50;3.53;;;;;;;;;;4982224;28;20216;-80
2022/09/06 16:53:58;;;;;;;10.88;3.40;;;;;;;;;;4981826;28;20526;-80
2022/09/06 16:57:02;;;;;;;8.75;2.75;;;;;;;;;;4980019;28;20176;-81
2022/09/06 17:00:08;;;;;;;6.50;2.78;;;;;;;;;;4971449;28;20182;-82
2022/09/06 17:03:13;;;;;;;8.02;2.97;;;;;;;;;;4976115;28;20204;-80
2022/09/06 17:06:18;;;;;;;13.88;2.95;;;;;;;;;;4977611;28;20225;-80
2022/09/06 17:09:22;;;;;;;13.88;3.33;;;;;;;;;;4985949;28;20194;-80
2022/09/06 17:12:28;;;;;;;8.32;3.35;;;;;;;;;;4976206;28;20218;-79
2022/09/06 17:17:03;;;;;;;6.65;2.63;;;;;;;;;;4989229;28;20182;-80
2022/09/06 17:18:58;;;;;;;10.43;3.05;;;;;;;;;;4990518;28;20205;-79
2022/09/06 17:22:03;;;;;;;5.72;2.55;;;;;;;;;;4989072;28;20218;-79
2022/09/06 17:25:08;;;;;;;9.43;2.93;;;;;;;;;;4978668;28;20179;-79
2022/09/06 17:28:13;;;;;;;6.55;2.90;;;;;;;;;;4989214;28;20177;-80
2022/09/06 17:31:18;;;;;;;5.97;2.80;;;;;;;;;;4978312;28;20218;-79
2022/09/06 17:34:23;;;;;;;6.07;2.37;;;;;;;;;;4988514;28;20177;-79
2022/09/06 17:37:27;;;;;;;6.17;2.83;;;;;;;;;;4987741;28;20177;-79
2022/09/06 17:40:31;;;;;;;23.53;3.60;;;;;;;;;;4986017;28;20184;-79
2022/09/06 17:43:36;;;;;;;6.20;2.60;;;;;;;;;;4986218;28;20183;-79
2022/09/06 17:46:41;;;;;;;7.57;2.83;;;;;;;;;;4988499;28;20211;-79
2022/09/06 17:49:46;;;;;;;5.60;2.60;;;;;;;;;;4990334;28;20631;-79
2022/09/06 17:52:52;;;;;;;3.80;2.90;;;;;;;;;;4966141;28;20186;-80
2022/09/06 17:55:56;;;;;;;8.20;3.10;;;;;;;;;;4988840;28;20175;-79
2022/09/06 17:59:04;;;;;;;7.33;3.40;;;;;;;;;;4988595;28;20200;-79
2022/09/06 18:02:08;;;;;;;8.67;2.60;;;;;;;;;;4987712;28;20219;-79
2022/09/06 18:05:12;;;;;;;4.70;2.67;;;;;;;;;;4986938;28;20183;-79
2022/09/06 18:08:16;;;;;;;8.03;2.93;;;;;;;;;;4976211;28;20205;-79
2022/09/06 18:11:27;;;;;;;7.40;2.73;;;;;;;;;;4987857;28;20690;-79
2022/09/06 18:14:31;;;;;;;4.70;2.60;;;;;;;;;;4975782;28;20186;-79
2022/09/06 18:17:35;;;;;;;5.57;2.67;;;;;;;;;;4976707;28;20182;-79
2022/09/06 18:20:40;;;;;;;8.40;2.50;;;;;;;;;;4986976;28;20182;-79
2022/09/06 18:23:44;;;;;;;9.27;3.33;;;;;;;;;;4977136;28;20181;-79
2022/09/06 18:26:48;;;;;;;8.40;3.00;;;;;;;;;;4987705;28;20549;-79
2022/09/06 18:29:53;;;;;;;7.17;2.93;;;;;;;;;;4975601;28;20176;-79
2022/09/06 18:32:57;;;;;;;7.13;3.47;;;;;;;;;;4976261;28;20179;-79
2022/09/06 18:36:03;;;;;;;9.00;3.43;;;;;;;;;;4988528;28;20523;-79
2022/09/06 18:39:08;;;;;;;8.50;3.37;;;;;;;;;;4988477;28;20178;-78
2022/09/06 18:42:12;;;;;;;9.50;3.57;;;;;;;;;;4988137;28;20222;-79